Aérodrome :
LOGIN :

S'inscrire | Disclaimer

   EN    FR    IT 

 










Légende :    VFR   VFR Marginal   IFR   IFR Intensif   IFR Très Intensif
Visi : 
Plafond : 
>= 8 km
>= 3000ft
5 à 8 km
1000 à 3000 ft
1500m à 5 km
500 à 1000 ft
800 à 1500m
200 à 500 ft
< 800m
< 200 ft
Symboles :   Orages  Brouillard  Fortes neiges  Fortes précipitations  Vent > 20 kt
SIGMETs :   Divers  Orages  Givrage  Turbulence  Onde Orograph.  Cendres Volcan.






- Altitude de l'aérodrome : 408 ft
- Code IATA : SOB


LHSM - Sarmellek Balaton

DERNIER METAR :
  • 231115Z AUTO VRB03KT 9000 NSC 11/03 Q1021 NOSIG

METARs EXPIRÉS :
  • 231045Z AUTO VRB01KT 9000 NSC 09/03 Q1022 NOSIG
  • 231015Z AUTO 07003KT CAVOK 08/03 Q1023 NOSIG
  • 230945Z AUTO VRB01KT 8000 NSC 08/02 Q1023 NOSIG
  • 230915Z AUTO 19002KT 9000 NSC 07/02 Q1023 NOSIG
  • 230845Z AUTO 00000KT CAVOK 06/01 Q1023 NOSIG

TAF TAF LHSM
Valide du 23 à 12h jusqu'au 23 à 21h UTC


231115Z 2312/2321 VRB03KT CAVOK
BECMG 2312/2315 19008KT
TEMPO 2315/2321 22014G24KT



MET'MAP, la Météo Aéronautique d'un coup d'oeil ! - Copyright ORBIFLY Décembre 2007 - Disclaimer

ORBIFLY MET'MAP TEAM :

Programmation & Développement : Alexandra Zaïnal
Sur une idée originale de : Baudouin d'Aumeries
Assistance à la programmation : Marc-Olivier Méhu
Soutien technique & logistique : Manuel Goepfert

Contact : metmap@orbifly.com




SOURCES & CREDITS :

   NOAA